createdAt,value
2019-04-05T00:02:18.583Z,99.90
2019-04-05T00:07:23.903Z,99.90
2019-04-05T00:12:29.204Z,99.90
2019-04-05T00:17:34.512Z,99.90
2019-04-05T00:22:39.821Z,99.90
2019-04-05T00:27:46.091Z,99.90
2019-04-05T00:32:51.488Z,99.90
2019-04-05T00:37:56.798Z,99.90
2019-04-05T00:43:02.143Z,99.90
2019-04-05T00:48:07.445Z,99.90
2019-04-05T00:53:12.748Z,99.90
2019-04-05T00:58:18.048Z,99.90
2019-04-05T01:03:23.368Z,99.90
2019-04-05T01:08:28.667Z,99.90
2019-04-05T01:13:34.059Z,99.90
2019-04-05T01:18:39.360Z,99.90
2019-04-05T01:23:44.661Z,99.90
2019-04-05T01:28:50.043Z,99.90
2019-04-05T01:33:55.439Z,99.90
2019-04-05T01:39:00.887Z,99.90
2019-04-05T01:44:07.800Z,99.90
2019-04-05T01:49:13.171Z,99.90
2019-04-05T01:54:18.483Z,99.90
2019-04-05T01:59:23.723Z,99.90
2019-04-05T02:04:29.061Z,99.90
2019-04-05T02:09:34.551Z,99.90
2019-04-05T02:14:39.851Z,99.90
2019-04-05T02:19:45.148Z,99.90
2019-04-05T02:24:50.454Z,99.90
2019-04-05T02:29:55.756Z,99.90
2019-04-05T02:35:01.082Z,99.90
2019-04-05T02:40:11.141Z,99.90
2019-04-05T02:45:18.521Z,99.90
2019-04-05T02:50:26.683Z,99.90
2019-04-05T02:55:32.989Z,99.90
2019-04-05T03:00:38.613Z,99.90
2019-04-05T03:05:45.145Z,99.90
2019-04-05T03:11:06.843Z,99.90
2019-04-05T03:16:18.846Z,99.90
2019-04-05T03:21:26.209Z,99.90
2019-04-05T03:26:34.820Z,99.90
2019-04-05T03:31:40.642Z,99.90
2019-04-05T03:36:46.329Z,99.90
2019-04-05T03:41:52.956Z,99.90
2019-04-05T03:46:58.327Z,99.90
2019-04-05T03:52:05.615Z,99.90
2019-04-05T03:57:11.077Z,99.90
2019-04-05T04:02:16.514Z,99.90
2019-04-05T04:07:21.923Z,99.90
2019-04-05T04:12:27.437Z,99.90
2019-04-05T04:17:32.727Z,99.90
2019-04-05T04:22:38.124Z,99.90
2019-04-05T04:27:43.516Z,99.90
2019-04-05T04:32:48.913Z,99.90
2019-04-05T04:37:54.329Z,99.90
2019-04-05T04:43:01.931Z,99.90
2019-04-05T04:48:07.817Z,99.90
2019-04-05T04:53:13.223Z,99.90
2019-04-05T04:58:18.541Z,99.90
2019-04-05T05:03:23.990Z,99.90
2019-04-05T05:08:29.268Z,99.90
2019-04-05T05:13:34.596Z,99.90
2019-04-05T05:18:40.428Z,99.90
2019-04-05T05:23:46.055Z,99.90
2019-04-05T05:28:51.978Z,99.90
2019-04-05T05:33:57.414Z,99.90
2019-04-05T05:39:02.841Z,99.90
2019-04-05T05:44:08.304Z,99.90
2019-04-05T05:49:13.621Z,99.90
2019-04-05T05:54:20.018Z,99.90
2019-04-05T05:59:25.361Z,99.90
2019-04-05T06:04:30.730Z,99.90
2019-04-05T06:09:36.050Z,99.90
2019-04-05T06:14:42.510Z,99.90
2019-04-05T06:19:50.058Z,99.90
2019-04-05T06:24:55.341Z,99.90
2019-04-05T06:30:02.949Z,99.90
2019-04-05T06:35:08.443Z,99.90
2019-04-05T06:40:14.866Z,99.90
2019-04-05T06:45:20.195Z,99.90
2019-04-05T06:50:25.551Z,99.90
2019-04-05T06:55:30.842Z,99.90
2019-04-05T07:00:36.161Z,99.90
2019-04-05T07:05:41.483Z,99.90
2019-04-05T07:10:46.860Z,99.90
2019-04-05T07:15:52.315Z,99.90
2019-04-05T07:20:58.046Z,99.90
2019-04-05T07:26:04.095Z,99.90
2019-04-05T07:31:09.456Z,99.90
2019-04-05T07:36:14.909Z,99.90
2019-04-05T07:41:23.208Z,99.90
2019-04-05T07:46:28.608Z,99.90
2019-04-05T07:51:33.985Z,99.90
2019-04-05T07:56:39.465Z,99.90
2019-04-05T08:01:44.853Z,99.90
2019-04-05T08:06:50.909Z,99.90
2019-04-05T08:11:56.569Z,99.90
2019-04-05T08:17:01.908Z,99.90
2019-04-05T08:22:07.306Z,99.90
2019-04-05T08:27:12.647Z,99.90
2019-04-05T08:32:18.014Z,99.90
2019-04-05T08:37:23.420Z,99.90
2019-04-05T08:42:28.805Z,99.90
2019-04-05T08:47:34.324Z,99.90
2019-04-05T08:52:39.635Z,99.90
2019-04-05T08:57:47.915Z,99.90
2019-04-05T09:02:52.088Z,99.90
2019-04-05T09:07:57.549Z,99.90
2019-04-05T09:13:02.936Z,99.90
2019-04-05T09:18:08.329Z,99.90
2019-04-05T09:23:13.712Z,99.90
2019-04-05T09:28:19.133Z,99.90
2019-04-05T09:33:24.510Z,99.90
2019-04-05T09:38:29.864Z,99.90
2019-04-05T09:43:35.331Z,99.90
2019-04-05T09:48:40.689Z,99.90
2019-04-05T09:53:46.098Z,99.90
2019-04-05T09:58:51.392Z,99.90
2019-04-05T10:03:56.831Z,99.90
2019-04-05T10:09:02.168Z,99.90
2019-04-05T10:14:09.813Z,99.90
2019-04-05T10:19:15.193Z,99.90
2019-04-05T10:24:20.579Z,99.90
2019-04-05T10:29:26.033Z,99.90
2019-04-05T10:34:31.418Z,99.90
2019-04-05T10:39:36.755Z,99.90
2019-04-05T10:44:42.182Z,99.90
2019-04-05T10:49:47.548Z,99.90
2019-04-05T10:54:52.890Z,99.90
2019-04-05T10:59:58.301Z,99.90
2019-04-05T11:05:03.952Z,99.90
2019-04-05T11:10:10.908Z,99.90
2019-04-05T11:15:16.862Z,99.90
2019-04-05T11:20:22.735Z,99.90
2019-04-05T11:25:28.127Z,99.90
2019-04-05T11:30:44.539Z,99.90
2019-04-05T11:35:49.937Z,99.90
2019-04-05T11:40:56.334Z,99.90
2019-04-05T11:46:02.222Z,99.90
2019-04-05T11:51:07.543Z,99.90
2019-04-05T11:56:14.853Z,99.90
2019-04-05T12:01:37.012Z,99.90
2019-04-05T12:06:42.419Z,99.90
2019-04-05T12:11:47.816Z,99.90
2019-04-05T12:16:53.242Z,99.90
2019-04-05T12:21:58.672Z,99.90
2019-04-05T12:27:04.839Z,99.90
2019-04-05T12:32:13.278Z,99.90
2019-04-05T12:37:17.984Z,99.90
2019-04-05T12:42:23.373Z,99.90
2019-04-05T12:47:28.776Z,99.90
2019-04-05T12:52:34.165Z,99.90
2019-04-05T12:57:39.533Z,99.90
2019-04-05T13:02:47.794Z,99.90
2019-04-05T13:07:53.405Z,99.90
2019-04-05T13:12:59.303Z,97.30
2019-04-05T13:18:04.805Z,94.60
2019-04-05T13:23:11.112Z,96.10
2019-04-05T13:28:18.969Z,98.60
2019-04-05T13:33:24.055Z,94.70
2019-04-05T13:38:29.834Z,90.90
2019-04-05T13:43:35.673Z,90.50
2019-04-05T13:48:41.074Z,90.70
2019-04-05T13:53:46.472Z,91.60
2019-04-05T13:58:51.804Z,88.90
2019-04-05T14:03:59.136Z,83.70
2019-04-05T14:09:05.655Z,85.30
2019-04-05T14:14:12.232Z,80.20
2019-04-05T14:19:19.219Z,80.80
2019-04-05T14:24:24.689Z,81.50
2019-04-05T14:29:33.198Z,78.80
2019-04-05T14:34:37.065Z,80.50
2019-04-05T14:39:42.406Z,79.50
2019-04-05T14:44:47.817Z,78.20
2019-04-05T14:49:53.223Z,82.50
2019-04-05T14:55:00.073Z,82.20
2019-04-05T15:00:06.324Z,85.70
2019-04-05T15:05:12.120Z,84.90
2019-04-05T15:10:17.426Z,77.60
2019-04-05T15:15:22.766Z,80.50
2019-04-05T15:20:28.179Z,84.80
2019-04-05T15:25:33.677Z,88.00
2019-04-05T15:30:39.023Z,91.30
2019-04-05T15:35:44.348Z,86.90
2019-04-05T15:40:49.641Z,88.30
2019-04-05T15:45:54.990Z,81.90
2019-04-05T15:51:00.297Z,86.90
2019-04-05T15:56:05.606Z,89.50
2019-04-05T16:01:11.242Z,91.60
2019-04-05T16:06:16.633Z,92.00
2019-04-05T16:11:22.084Z,93.20
2019-04-05T16:16:28.072Z,95.90
2019-04-05T16:21:33.778Z,96.30
2019-04-05T16:26:39.864Z,97.60
2019-04-05T16:31:45.198Z,97.30
2019-04-05T16:36:50.533Z,98.60
2019-04-05T16:41:55.881Z,99.90
2019-04-05T16:47:19.904Z,99.90
2019-04-05T16:52:44.087Z,99.90
2019-04-05T16:57:43.001Z,99.90
2019-04-05T17:02:57.005Z,99.90
2019-04-05T17:08:03.014Z,99.90
2019-04-05T17:13:09.000Z,99.90
2019-04-05T17:18:14.785Z,99.90
2019-04-05T17:23:20.709Z,99.90
2019-04-05T17:28:26.365Z,99.90
2019-04-05T17:33:31.689Z,99.90
2019-04-05T17:38:37.105Z,99.90
2019-04-05T17:43:42.888Z,99.90
2019-04-05T17:48:51.711Z,99.90
2019-04-05T17:53:56.510Z,99.90
2019-04-05T17:59:02.685Z,99.90
2019-04-05T18:04:08.034Z,99.90
2019-04-05T18:09:13.347Z,99.90
2019-04-05T18:14:18.736Z,99.90
2019-04-05T18:19:24.117Z,99.90
2019-04-05T18:24:29.457Z,99.90
2019-04-05T18:29:34.761Z,99.90
2019-04-05T18:34:40.090Z,99.90
2019-04-05T18:39:45.396Z,99.90
2019-04-05T18:44:50.735Z,99.90
2019-04-05T18:50:02.759Z,99.90
2019-04-05T18:55:02.985Z,99.90
2019-04-05T19:00:09.021Z,99.90
2019-04-05T19:05:14.539Z,99.90
2019-04-05T19:10:20.556Z,99.90
2019-04-05T19:15:25.851Z,99.90
2019-04-05T19:20:31.175Z,99.90
2019-04-05T19:25:36.561Z,99.90
2019-04-05T19:51:09.841Z,99.90
2019-04-05T19:56:15.209Z,99.90
2019-04-05T20:01:20.550Z,99.90
2019-04-05T20:06:25.877Z,99.90
2019-04-05T20:11:31.207Z,99.90
2019-04-05T20:16:36.536Z,99.90
2019-04-05T20:21:41.915Z,99.90
2019-04-05T20:26:47.344Z,99.90
2019-04-05T20:31:52.652Z,99.90
2019-04-05T20:36:58.076Z,99.90
2019-04-05T20:42:03.385Z,99.90
2019-04-05T20:47:08.722Z,99.90
2019-04-05T20:52:15.132Z,99.90
2019-04-05T20:57:20.510Z,99.90
2019-04-05T21:02:25.789Z,99.90
2019-04-05T21:07:32.187Z,99.90
2019-04-05T21:12:37.554Z,99.90
2019-04-05T21:17:42.865Z,99.90
2019-04-05T21:22:48.229Z,99.90
2019-04-05T21:27:53.906Z,99.90
2019-04-05T21:32:59.342Z,99.90
2019-04-05T21:38:05.149Z,99.90
2019-04-05T21:43:10.639Z,99.90
2019-04-05T21:48:16.201Z,99.90
2019-04-05T21:53:23.492Z,99.90
2019-04-05T21:58:28.953Z,99.90
2019-04-05T22:03:35.347Z,99.90
2019-04-05T22:08:40.714Z,99.90
2019-04-05T22:13:46.265Z,99.90
2019-04-05T22:18:52.702Z,99.90
2019-04-05T22:23:58.062Z,99.90
2019-04-05T22:29:06.325Z,99.90
2019-04-05T22:34:12.914Z,99.90
2019-04-05T22:39:18.258Z,99.90
2019-04-05T22:44:24.676Z,99.90
2019-04-05T22:49:30.429Z,99.90
2019-04-05T22:54:35.885Z,99.90
2019-04-05T22:59:42.448Z,99.90
2019-04-05T23:04:47.771Z,99.90
2019-04-05T23:09:54.033Z,99.90
2019-04-05T23:14:59.782Z,99.90
2019-04-05T23:20:07.211Z,99.90
2019-04-05T23:25:21.878Z,99.90
2019-04-05T23:30:22.133Z,99.90
2019-04-05T23:35:27.469Z,99.90
2019-04-05T23:40:34.666Z,99.90
2019-04-05T23:45:40.213Z,99.90
2019-04-05T23:50:45.974Z,99.90
2019-04-05T23:55:52.347Z,99.90
